Time;durP1;ratioP1;P1;durP2;ratioP2;P2;SDS_P1;SDS_P2;PMS_P1;PMS_P2;Temp;Humidity;BMP_temperature;BMP_pressure;BME280_temperature;BME280_humidity;BME280_pressure;Samples;Min_cycle;Max_cycle;Signal;HPM_P1;HPM_P2
2023/04/17 00:01:14;;;;;;;1.40;1.10;;;;;;;7.61;100.00;97697.03;1712240;75;669212;-73
2023/04/17 00:03:45;;;;;;;1.90;1.20;;;;;;;7.56;100.00;97686.00;1704034;75;686928;-71
2023/04/17 00:06:18;;;;;;;1.20;1.10;;;;;;;7.60;100.00;97694.75;1712148;75;665316;-75
2023/04/17 00:08:48;;;;;;;1.25;1.15;;;;;;;7.62;100.00;97687.66;1678682;75;2738645;-72
2023/04/17 00:11:19;;;;;;;1.80;1.20;;;;;;;7.67;100.00;97689.78;1711861;75;674173;-72
2023/04/17 00:13:49;;;;;;;2.00;1.40;;;;;;;7.77;100.00;97687.03;1701210;75;864419;-72
2023/04/17 00:16:19;;;;;;;1.20;1.10;;;;;;;7.81;100.00;97684.91;1687927;75;2754102;-73
2023/04/17 00:18:49;;;;;;;1.55;1.05;;;;;;;7.72;100.00;97688.41;1630383;75;6764343;-71
2023/04/17 00:21:23;;;;;;;2.25;1.50;;;;;;;7.68;100.00;97671.47;1711942;75;680345;-71
2023/04/17 00:23:54;;;;;;;2.40;1.40;;;;;;;7.72;100.00;97680.25;1702896;75;755188;-74
2023/04/17 00:26:24;;;;;;;3.05;1.50;;;;;;;7.66;100.00;97685.53;1712205;75;669840;-72
2023/04/17 00:28:55;;;;;;;1.95;1.30;;;;;;;7.72;100.00;97676.75;1702230;75;791733;-71
2023/04/17 00:31:25;;;;;;;1.80;1.20;;;;;;;7.77;100.00;97673.41;1711770;75;699257;-74
2023/04/17 00:33:55;;;;;;;3.00;1.85;;;;;;;7.67;100.00;97665.25;1702818;75;740024;-74
2023/04/17 00:36:30;;;;;;;4.80;1.70;;;;;;;7.67;100.00;97665.25;1712164;75;680741;-72
2023/04/17 00:39:00;;;;;;;1.30;1.20;;;;;;;7.75;100.00;97671.16;1690373;75;1809853;-72
2023/04/17 00:41:30;;;;;;;1.10;0.80;;;;;;;7.77;100.00;97667.94;1712466;75;676271;-75
2023/04/17 00:44:00;;;;;;;1.05;0.95;;;;;;;7.80;100.00;97662.38;1702979;75;750950;-73
2023/04/17 00:46:31;;;;;;;1.15;1.00;;;;;;;7.78;100.00;97653.13;1711881;75;691071;-76
2023/04/17 00:49:02;;;;;;;1.10;1.00;;;;;;;7.78;100.00;97659.34;1703200;75;751393;-73
2023/04/17 00:51:36;;;;;;;0.80;0.80;;;;;;;7.76;100.00;97659.03;1643526;75;6469865;-71
2023/04/17 00:54:06;;;;;;;1.20;0.80;;;;;;;7.78;100.00;97659.34;1703364;75;731145;-77
2023/04/17 00:56:37;;;;;;;1.10;1.00;;;;;;;7.84;100.00;97654.00;1710358;75;840397;-73
2023/04/17 00:59:08;;;;;;;1.00;0.90;;;;;;;7.89;100.00;97658.88;1691434;75;1712456;-73
2023/04/17 01:01:38;;;;;;;1.10;1.00;;;;;;;7.92;100.00;97652.50;1711627;75;690219;-74
2023/04/17 01:04:10;;;;;;;1.25;1.15;;;;;;;7.97;100.00;97649.16;1703416;75;742979;-71
2023/04/17 01:06:43;;;;;;;2.30;0.90;;;;;;;7.99;100.00;97646.72;1712554;75;685490;-72
2023/04/17 01:09:14;;;;;;;1.10;1.00;;;;;;;8.00;100.00;97639.31;1703331;75;736619;-72
2023/04/17 01:11:44;;;;;;;0.70;0.70;;;;;;;7.97;100.00;97640.22;1712331;75;687076;-74
2023/04/17 01:14:14;;;;;;;0.60;0.60;;;;;;;8.11;100.00;97643.06;1666737;75;3771079;-75
2023/04/17 01:16:46;;;;;;;0.70;0.70;;;;;;;8.19;100.00;97640.00;1712762;75;673758;-72
2023/04/17 01:19:19;;;;;;;0.55;0.55;;;;;;;8.20;100.00;97636.84;1702306;75;817830;-72
2023/04/17 01:21:51;;;;;;;0.50;0.50;;;;;;;8.23;100.00;97637.88;1710276;75;845663;-72
2023/04/17 01:24:24;;;;;;;0.60;0.50;;;;;;;8.27;100.00;97636.50;1688173;75;1987638;-72
2023/04/17 01:26:55;;;;;;;0.80;0.80;;;;;;;8.15;100.00;97628.50;1710263;75;795436;-73
2023/04/17 01:29:25;;;;;;;0.75;0.70;;;;;;;8.10;100.00;97629.88;1678241;75;2814734;-72
2023/04/17 01:31:55;;;;;;;0.80;0.80;;;;;;;8.10;100.00;97627.16;1711983;75;693899;-75
2023/04/17 01:34:28;;;;;;;0.95;0.70;;;;;;;8.24;100.00;97623.78;1703111;75;748614;-73
2023/04/17 01:36:58;;;;;;;1.10;1.00;;;;;;;8.19;100.00;97616.22;1711738;75;672625;-72
2023/04/17 01:39:31;;;;;;;1.15;1.05;;;;;;;8.17;100.00;97617.91;1702186;75;747414;-72
2023/04/17 01:42:01;;;;;;;1.10;1.00;;;;;;;8.20;100.00;97614.25;1711782;75;677497;-72
2023/04/17 01:44:33;;;;;;;0.90;0.90;;;;;;;8.27;100.00;97608.47;1702980;75;749507;-72
2023/04/17 01:47:03;;;;;;;0.60;0.60;;;;;;;8.30;100.00;97613.00;1699366;75;1715022;-72
2023/04/17 01:49:33;;;;;;;1.20;0.90;;;;;;;8.34;100.00;97610.84;1702699;75;747573;-73
2023/04/17 01:52:04;;;;;;;0.70;0.70;;;;;;;8.32;100.00;97605.88;1712798;75;692331;-73
2023/04/17 01:54:36;;;;;;;0.90;0.80;;;;;;;8.25;100.00;97605.44;1703554;75;745702;-70
2023/04/17 01:57:07;;;;;;;1.00;0.80;;;;;;;8.30;100.00;97604.81;1711869;75;694094;-72
2023/04/17 01:59:39;;;;;;;0.80;0.80;;;;;;;8.27;100.00;97608.47;1702915;75;753802;-73
2023/04/17 02:02:09;;;;;;;1.20;0.90;;;;;;;8.22;100.00;97606.34;1688125;75;2699070;-72
2023/04/17 02:04:39;;;;;;;1.05;0.90;;;;;;;8.19;100.00;97602.59;1703162;75;765986;-72
2023/04/17 02:07:10;;;;;;;1.00;0.90;;;;;;;8.21;100.00;97602.13;1711883;75;674378;-73
2023/04/17 02:09:42;;;;;;;0.75;0.60;;;;;;;8.22;100.00;97601.66;1701438;75;865261;-72
2023/04/17 02:12:13;;;;;;;1.20;1.00;;;;;;;8.16;100.00;97605.50;1712186;75;676471;-73
2023/04/17 02:14:43;;;;;;;1.20;0.90;;;;;;;8.13;100.00;97611.84;1703211;75;730397;-74
2023/04/17 02:17:13;;;;;;;1.20;1.10;;;;;;;8.19;100.00;97601.84;1711864;75;671542;-73
2023/04/17 02:19:43;;;;;;;1.60;1.00;;;;;;;8.27;100.00;97603.00;1701689;75;774549;-73
2023/04/17 02:22:13;;;;;;;1.35;0.90;;;;;;;8.23;100.00;97600.47;1711296;75;716112;-71
2023/04/17 02:24:46;;;;;;;0.90;0.90;;;;;;;8.33;100.00;97609.34;1702463;75;755549;-75
2023/04/17 02:27:16;;;;;;;0.90;0.90;;;;;;;8.37;100.00;97598.25;1696699;75;1987208;-72
2023/04/17 02:29:47;;;;;;;1.05;0.90;;;;;;;8.43;97.09;97588.28;1702744;75;755634;-73
2023/04/17 02:32:19;;;;;;;0.95;0.80;;;;;;;8.44;98.77;97597.94;1712171;75;671907;-74
2023/04/17 02:34:50;;;;;;;1.85;1.10;;;;;;;8.47;99.62;97589.63;1703361;75;745662;-72
2023/04/17 02:37:20;;;;;;;0.70;0.70;;;;;;;8.51;97.89;97598.38;1686701;75;2871074;-72
2023/04/17 02:39:53;;;;;;;0.60;0.60;;;;;;;8.59;100.00;97598.06;1689230;75;1905363;-72
2023/04/17 02:42:23;;;;;;;1.70;0.90;;;;;;;8.49;97.37;97589.13;1640649;75;6680052;-72
2023/04/17 02:44:53;;;;;;;0.90;0.90;;;;;;;8.46;100.00;97588.09;1703258;75;735521;-72
2023/04/17 02:47:23;;;;;;;0.65;0.65;;;;;;;8.47;100.00;97583.41;1685249;75;2947781;-73
2023/04/17 02:49:55;;;;;;;0.50;0.50;;;;;;;8.52;100.00;97585.50;1700675;75;933196;-71
2023/04/17 02:52:25;;;;;;;0.55;0.55;;;;;;;8.39;100.00;97582.19;1709304;75;974869;-71
2023/04/17 02:54:58;;;;;;;1.00;0.90;;;;;;;8.34;100.00;97575.38;1701641;75;832645;-73
2023/04/17 02:57:29;;;;;;;1.40;0.85;;;;;;;8.37;100.00;97585.41;1710733;75;865793;-75
2023/04/17 03:00:00;;;;;;;0.70;0.70;;;;;;;8.38;100.00;97580.69;1689571;75;1873194;-71
2023/04/17 03:02:32;;;;;;;0.60;0.60;;;;;;;8.31;100.00;97579.81;1713557;75;671602;-72
2023/04/17 03:05:03;;;;;;;0.85;0.80;;;;;;;8.35;100.00;97584.34;1692298;75;1725979;-70
2023/04/17 03:07:35;;;;;;;0.85;0.80;;;;;;;8.32;100.00;97572.38;1712531;75;675119;-72
2023/04/17 03:10:10;;;;;;;2.75;1.10;;;;;;;8.36;100.00;97577.66;1703763;75;748374;-71
2023/04/17 03:12:40;;;;;;;1.40;0.90;;;;;;;8.32;100.00;97573.16;1712268;75;673647;-72
2023/04/17 03:15:13;;;;;;;1.15;1.05;;;;;;;8.41;100.00;97582.50;1703208;75;753261;-73
2023/04/17 03:17:44;;;;;;;1.10;0.80;;;;;;;8.23;100.00;97581.38;1711678;75;749721;-72
2023/04/17 03:20:14;;;;;;;1.20;0.90;;;;;;;8.29;100.00;97581.47;1703421;75;733957;-72
2023/04/17 03:22:44;;;;;;;0.70;0.70;;;;;;;8.27;100.00;97586.63;1711606;75;758433;-72
2023/04/17 03:25:17;;;;;;;1.00;0.90;;;;;;;8.09;100.00;97579.31;1702963;75;760048;-72
2023/04/17 03:27:50;;;;;;;0.60;0.60;;;;;;;8.10;100.00;97584.31;1709396;75;937032;-74
2023/04/17 03:30:21;;;;;;;1.30;1.20;;;;;;;8.05;100.00;97581.44;1699475;75;945677;-72
2023/04/17 03:32:51;;;;;;;0.85;0.70;;;;;;;8.00;100.00;97593.72;1708013;75;967601;-74
2023/04/17 03:35:21;;;;;;;0.70;0.70;;;;;;;7.97;100.00;97585.72;1702988;75;747104;-70
2023/04/17 03:37:52;;;;;;;0.65;0.65;;;;;;;7.97;100.00;97581.00;1712031;75;681056;-71
2023/04/17 03:40:25;;;;;;;0.60;0.60;;;;;;;8.05;100.00;97592.34;1701936;75;784039;-74
2023/04/17 03:42:56;;;;;;;0.50;0.50;;;;;;;8.00;100.00;97590.25;1710442;75;823669;-71
2023/04/17 03:45:26;;;;;;;0.90;0.70;;;;;;;7.95;100.00;97582.69;1699365;75;981981;-70
2023/04/17 03:47:56;;;;;;;1.40;1.10;;;;;;;7.85;100.00;97595.59;1711695;75;681058;-70
2023/04/17 03:50:26;;;;;;;1.00;0.90;;;;;;;7.79;100.00;97589.22;1700100;75;920506;-72
2023/04/17 03:52:57;;;;;;;0.80;0.80;;;;;;;7.90;100.00;97592.97;1711585;75;672786;-73
2023/04/17 03:55:30;;;;;;;2.15;0.70;;;;;;;7.80;100.00;97588.78;1701198;75;801970;-72
2023/04/17 03:58:00;;;;;;;0.80;0.70;;;;;;;7.88;100.00;97591.94;1712212;75;678205;-76
2023/04/17 04:00:30;;;;;;;0.60;0.60;;;;;;;7.89;100.00;97596.19;1702464;75;760351;-71
2023/04/17 04:03:00;;;;;;;1.35;0.60;;;;;;;7.81;100.00;97595.72;1709548;75;847808;-71
2023/04/17 04:05:30;;;;;;;1.45;0.95;;;;;;;7.78;100.00;97602.09;1703271;75;752337;-71
2023/04/17 04:08:01;;;;;;;0.90;0.70;;;;;;;7.77;100.00;97605.28;1710116;75;804442;-72
2023/04/17 04:10:34;;;;;;;1.65;1.10;;;;;;;7.80;100.00;97598.94;1702615;75;747476;-71
2023/04/17 04:13:04;;;;;;;2.20;1.00;;;;;;;7.80;100.00;97598.94;1712077;75;676482;-72
2023/04/17 04:15:34;;;;;;;3.40;1.00;;;;;;;7.77;100.00;97608.78;1702747;75;753386;-72
2023/04/17 04:18:04;;;;;;;2.95;1.15;;;;;;;7.74;100.00;97606.94;1711939;75;691475;-73
2023/04/17 04:20:35;;;;;;;1.40;0.95;;;;;;;7.64;100.00;97606.22;1702990;75;740682;-72
2023/04/17 04:23:05;;;;;;;1.10;0.80;;;;;;;7.70;100.00;97603.66;1699025;75;1688505;-73
2023/04/17 04:25:40;;;;;;;1.65;1.10;;;;;;;7.62;100.00;97616.06;1679127;75;2743338;-72
2023/04/17 04:28:12;;;;;;;2.55;1.30;;;;;;;7.56;100.00;97613.19;1711916;75;669842;-73
2023/04/17 04:30:49;;;;;;;3.70;1.60;;;;;;;7.58;100.00;97610.78;1702773;75;742982;-73
2023/04/17 04:33:20;;;;;;;1.85;1.55;;;;;;;7.65;100.00;97620.63;1703598;75;678004;-72
2023/04/17 04:35:54;;;;;;;5.80;4.20;;;;;;;7.53;100.00;97616.84;1708257;75;984177;-72
2023/04/17 04:38:29;;;;;;;4.40;3.20;;;;;;;7.59;100.00;97617.72;1703692;75;684273;-74
2023/04/17 04:41:09;;;;;;;2.30;1.90;;;;;;;7.57;100.00;97617.44;1712129;75;674536;-74
2023/04/17 04:43:39;;;;;;;2.40;2.10;;;;;;;7.56;100.00;97621.38;1701986;75;833290;-71
2023/04/17 04:46:09;;;;;;;4.00;3.10;;;;;;;7.62;100.00;97624.22;1710707;75;863351;-73
2023/04/17 04:48:40;;;;;;;8.90;6.50;;;;;;;7.76;100.00;97626.34;1703078;75;772714;-72
2023/04/17 04:51:10;;;;;;;6.10;4.55;;;;;;;7.72;100.00;97620.31;1711993;75;675643;-74
2023/04/17 04:53:40;;;;;;;6.15;4.30;;;;;;;7.66;100.00;97625.59;1703905;75;678268;-73
2023/04/17 04:56:13;;;;;;;7.10;5.90;;;;;;;7.65;100.00;97624.09;1711074;75;748563;-75
2023/04/17 04:58:43;;;;;;;6.25;4.75;;;;;;;7.72;100.00;97636.66;1702741;75;746022;-74
2023/04/17 05:01:13;;;;;;;5.00;3.95;;;;;;;7.68;100.00;97636.78;1710681;75;880238;-75
2023/04/17 05:03:44;;;;;;;4.10;3.00;;;;;;;7.67;100.00;97632.56;1699964;75;967335;-72
2023/04/17 05:06:14;;;;;;;3.35;2.50;;;;;;;7.70;100.00;97630.91;1710485;75;824530;-74
2023/04/17 05:08:44;;;;;;;2.65;1.90;;;;;;;7.77;100.00;97635.25;1702202;75;751707;-71
2023/04/17 05:11:18;;;;;;;1.60;1.50;;;;;;;7.77;100.00;97640.69;1642122;75;6548823;-73
2023/04/17 05:13:48;;;;;;;1.20;1.10;;;;;;;7.82;100.00;97645.56;1703099;75;753042;-70
2023/04/17 05:16:19;;;;;;;1.50;1.10;;;;;;;7.85;100.00;97641.91;1711709;75;692568;-73
2023/04/17 05:18:49;;;;;;;1.00;0.90;;;;;;;7.83;100.00;97644.34;1702701;75;777586;-76
2023/04/17 05:21:19;;;;;;;1.00;0.90;;;;;;;7.88;100.00;97647.19;1712335;75;673920;-72
2023/04/17 05:23:50;;;;;;;1.90;1.25;;;;;;;7.88;100.00;97652.66;1703489;75;747229;-71
2023/04/17 05:26:23;;;;;;;0.80;0.80;;;;;;;7.88;100.00;97658.09;1712325;75;669551;-73
2023/04/17 05:28:53;;;;;;;0.95;0.90;;;;;;;8.02;100.00;97659.44;1703044;75;742804;-70
2023/04/17 05:31:23;;;;;;;1.20;1.10;;;;;;;7.97;100.00;97659.31;1711591;75;678637;-71
2023/04/17 05:33:54;;;;;;;1.10;0.90;;;;;;;8.06;100.00;97657.31;1703286;75;726397;-71
2023/04/17 05:36:24;;;;;;;1.05;0.95;;;;;;;8.02;100.00;97662.16;1711515;75;696683;-71
2023/04/17 05:38:55;;;;;;;1.10;0.90;;;;;;;8.13;100.00;97658.97;1702978;75;738915;-71
2023/04/17 05:41:31;;;;;;;1.40;1.20;;;;;;;8.16;100.00;97662.75;1711489;75;677719;-71
2023/04/17 05:44:01;;;;;;;1.60;1.20;;;;;;;8.15;100.00;97661.22;1703278;75;752860;-70
2023/04/17 05:46:32;;;;;;;1.10;1.00;;;;;;;8.32;100.00;97657.69;1698812;75;1706920;-71
2023/04/17 05:49:02;;;;;;;1.10;1.00;;;;;;;8.29;100.00;97655.88;1687254;75;1877028;-73
2023/04/17 05:51:32;;;;;;;1.35;1.25;;;;;;;8.58;100.00;97651.84;1710014;75;831836;-71
2023/04/17 05:54:02;;;;;;;1.70;1.20;;;;;;;8.70;100.00;97650.88;1703431;75;741322;-72
2023/04/17 05:56:36;;;;;;;1.90;1.40;;;;;;;8.86;98.64;97655.19;1711470;75;674296;-72
2023/04/17 05:59:06;;;;;;;1.50;1.40;;;;;;;8.96;96.09;97653.91;1702945;75;746868;-72
2023/04/17 06:01:38;;;;;;;3.25;1.35;;;;;;;9.07;94.43;97655.38;1710626;75;705734;-71
2023/04/17 06:04:08;;;;;;;1.55;1.20;;;;;;;9.12;94.13;97660.19;1703533;75;736040;-71
2023/04/17 06:06:39;;;;;;;3.00;1.60;;;;;;;9.18;92.16;97659.06;1711634;75;688056;-71
2023/04/17 06:09:09;;;;;;;1.95;1.20;;;;;;;9.28;91.78;97659.00;1702598;75;745183;-71
2023/04/17 06:11:42;;;;;;;1.60;1.10;;;;;;;9.34;90.83;97663.38;1712581;75;675531;-71
2023/04/17 06:14:12;;;;;;;2.20;1.65;;;;;;;9.38;90.46;97657.75;1702617;75;755062;-71
2023/04/17 06:16:43;;;;;;;1.55;1.25;;;;;;;9.44;91.48;97660.56;1711581;75;674779;-72
2023/04/17 06:19:13;;;;;;;3.40;1.70;;;;;;;9.52;89.17;97653.50;1689428;75;1782449;-73
2023/04/17 06:21:43;;;;;;;2.75;1.55;;;;;;;9.56;90.17;97660.31;1711471;75;677383;-70
2023/04/17 06:24:17;;;;;;;1.60;1.40;;;;;;;9.67;88.42;97656.25;1702170;75;758399;-74
2023/04/17 06:26:50;;;;;;;1.60;1.30;;;;;;;9.72;86.79;97658.38;1711806;75;705928;-72
2023/04/17 06:29:21;;;;;;;2.50;1.70;;;;;;;9.75;84.73;97660.16;1700378;75;899649;-70
2023/04/17 06:31:51;;;;;;;3.60;1.60;;;;;;;9.81;84.46;97664.50;1709495;75;948491;-72
2023/04/17 06:34:21;;;;;;;2.10;1.55;;;;;;;9.86;86.81;97670.53;1703095;75;765390;-72
2023/04/17 06:36:52;;;;;;;1.65;1.20;;;;;;;9.98;84.60;97673.00;1698691;75;1754040;-70
2023/04/17 06:39:22;;;;;;;3.40;1.45;;;;;;;9.97;84.63;97674.22;1702787;75;745601;-73
2023/04/17 06:41:55;;;;;;;6.20;1.70;;;;;;;10.01;81.49;97674.03;1711776;75;672229;-71
2023/04/17 06:44:31;;;;;;;1.45;1.20;;;;;;;10.11;83.83;97672.72;1702746;75;766494;-73
2023/04/17 06:47:03;;;;;;;2.10;1.40;;;;;;;10.22;81.39;97677.59;1703030;75;678862;-71
2023/04/17 06:49:33;;;;;;;1.70;1.60;;;;;;;10.13;79.48;97677.72;1711169;75;674490;-73
2023/04/17 06:52:04;;;;;;;3.15;1.40;;;;;;;10.39;80.56;97680.63;1702504;75;809490;-72
2023/04/17 06:54:34;;;;;;;3.10;1.50;;;;;;;10.47;79.86;97681.78;1711952;75;695593;-73
2023/04/17 06:57:09;;;;;;;6.20;1.40;;;;;;;10.51;78.76;97681.56;1701196;75;918545;-70
2023/04/17 06:59:40;;;;;;;1.70;1.00;;;;;;;10.61;77.88;97680.25;1708865;75;949510;-71
2023/04/17 07:02:11;;;;;;;2.10;1.10;;;;;;;10.68;79.72;97681.81;1703093;75;684088;-74
2023/04/17 07:04:41;;;;;;;2.90;1.50;;;;;;;10.62;79.28;97682.50;1711096;75;682175;-73
2023/04/17 07:07:13;;;;;;;2.30;1.50;;;;;;;10.63;77.18;97689.50;1702285;75;796869;-73
2023/04/17 07:09:44;;;;;;;1.30;1.00;;;;;;;10.86;76.48;97670.63;1712314;75;675307;-71
2023/04/17 07:12:17;;;;;;;1.30;1.00;;;;;;;10.91;76.68;97680.91;1704072;75;687282;-74
2023/04/17 07:14:47;;;;;;;1.40;1.20;;;;;;;10.95;75.35;97676.00;1712529;75;673039;-70
2023/04/17 07:17:26;;;;;;;2.80;1.10;;;;;;;10.98;75.18;97682.50;1704434;75;676051;-72
2023/04/17 07:19:56;;;;;;;1.90;1.20;;;;;;;11.17;75.73;97678.25;1712475;75;678012;-73
2023/04/17 07:22:27;;;;;;;2.30;1.20;;;;;;;11.31;74.09;97676.69;1703782;75;749990;-71
2023/04/17 07:24:57;;;;;;;1.70;1.10;;;;;;;11.33;73.69;97676.19;1710668;75;817960;-71
2023/04/17 07:27:30;;;;;;;3.00;1.10;;;;;;;11.42;73.29;97684.28;1701723;75;755133;-72
2023/04/17 07:30:00;;;;;;;1.40;1.20;;;;;;;11.46;72.79;97679.38;1711107;75;743743;-72
2023/04/17 07:32:30;;;;;;;2.05;1.25;;;;;;;11.42;71.65;97687.78;1629814;75;6848848;-70
2023/04/17 07:35:01;;;;;;;1.70;1.10;;;;;;;11.55;73.09;97687.44;1710583;75;684085;-72
2023/04/17 07:37:31;;;;;;;1.70;1.10;;;;;;;11.81;71.12;97689.44;1703235;75;757473;-73
2023/04/17 07:40:03;;;;;;;2.00;1.30;;;;;;;11.62;70.43;97694.50;1708821;75;936587;-72
2023/04/17 07:42:36;;;;;;;1.45;1.30;;;;;;;11.87;68.89;97690.31;1690708;75;1767053;-71
2023/04/17 07:45:07;;;;;;;1.40;1.00;;;;;;;11.87;68.53;97698.53;1711500;75;682417;-71
2023/04/17 07:47:38;;;;;;;3.85;1.40;;;;;;;11.89;70.16;97694.06;1700891;75;746765;-74
2023/04/17 07:50:12;;;;;;;2.30;1.30;;;;;;;11.88;67.89;97695.31;1696154;75;1960248;-72
2023/04/17 07:52:43;;;;;;;1.25;1.00;;;;;;;11.92;69.25;97693.09;1700018;75;791181;-72
2023/04/17 07:55:13;;;;;;;1.40;0.90;;;;;;;12.09;68.09;97696.00;1710604;75;719366;-77
2023/04/17 07:57:50;;;;;;;1.50;1.05;;;;;;;12.37;68.13;97695.50;1702639;75;752566;-71
2023/04/17 08:00:23;;;;;;;1.55;1.20;;;;;;;12.36;68.59;97700.25;1702321;75;677732;-73
2023/04/17 08:02:53;;;;;;;3.00;1.30;;;;;;;12.59;67.36;97700.41;1697343;75;1854818;-73
2023/04/17 08:05:24;;;;;;;4.20;1.20;;;;;;;12.72;65.04;97700.78;1677804;75;1762970;-71
2023/04/17 08:07:54;;;;;;;2.00;1.30;;;;;;;12.81;64.67;97699.06;1687149;75;2719245;-72
2023/04/17 08:10:24;;;;;;;1.50;1.00;;;;;;;12.73;66.18;97693.28;1702781;75;682064;-73
2023/04/17 08:12:57;;;;;;;1.40;1.10;;;;;;;12.48;65.48;97706.59;1710906;75;710280;-73
2023/04/17 08:15:28;;;;;;;1.40;1.20;;;;;;;12.55;65.54;97710.84;1650933;75;4979779;-71
2023/04/17 08:17:58;;;;;;;3.30;1.00;;;;;;;12.77;64.49;97711.03;1711090;75;683661;-73
2023/04/17 08:20:28;;;;;;;1.90;1.50;;;;;;;12.54;64.67;97707.38;1701437;75;713482;-74
2023/04/17 08:22:59;;;;;;;1.90;1.20;;;;;;;12.78;63.48;97709.03;1698669;75;1678335;-72
2023/04/17 08:25:29;;;;;;;1.20;0.90;;;;;;;13.21;64.02;97706.28;1688976;75;1828492;-72
2023/04/17 08:28:02;;;;;;;1.95;1.25;;;;;;;12.84;64.66;97717.31;1711255;75;690742;-71
2023/04/17 08:30:33;;;;;;;3.20;1.30;;;;;;;13.00;64.49;97719.41;1698500;75;980662;-71
2023/04/17 08:33:03;;;;;;;3.20;2.40;;;;;;;13.29;61.80;97704.59;1686452;75;2713389;-71
2023/04/17 08:35:34;;;;;;;2.00;1.60;;;;;;;13.43;62.84;97702.91;1703980;75;683746;-69
2023/04/17 08:38:04;;;;;;;4.60;1.30;;;;;;;13.08;63.57;97722.44;1710848;75;679097;-73
2023/04/17 08:40:34;;;;;;;1.50;1.20;;;;;;;12.87;63.01;97716.31;1703102;67;690196;-71
2023/04/17 08:43:08;;;;;;;1.80;1.30;;;;;;;12.88;63.02;97706.84;1711564;75;679376;-73
2023/04/17 08:45:42;;;;;;;2.20;1.80;;;;;;;13.13;63.08;97706.00;1703966;75;678442;-72
2023/04/17 08:48:13;;;;;;;1.80;1.30;;;;;;;13.30;61.96;97713.59;1699498;75;1675400;-71
2023/04/17 08:50:48;;;;;;;1.80;1.20;;;;;;;13.05;62.74;97713.19;1690151;75;1821834;-72
2023/04/17 08:53:21;;;;;;;3.40;1.45;;;;;;;12.96;62.56;97714.16;1703971;75;1720837;-72
2023/04/17 08:55:51;;;;;;;1.40;1.30;;;;;;;13.21;60.31;97706.28;1709872;75;836787;-71
2023/04/17 08:58:25;;;;;;;2.50;1.60;;;;;;;13.09;62.03;97708.22;1677332;75;2888367;-70
2023/04/17 09:00:55;;;;;;;1.80;1.30;;;;;;;12.87;62.45;97717.09;1712140;75;672985;-71
2023/04/17 09:03:26;;;;;;;7.70;1.70;;;;;;;13.09;62.58;97710.22;1700441;75;988819;-71
2023/04/17 09:06:00;;;;;;;2.70;1.50;;;;;;;13.12;60.54;97712.00;1711154;75;703593;-73
2023/04/17 09:08:30;;;;;;;4.90;1.50;;;;;;;13.48;61.32;97698.69;1689670;75;1840882;-70
2023/04/17 09:11:01;;;;;;;1.90;1.60;;;;;;;13.61;61.06;97702.50;1711282;75;678005;-70
2023/04/17 09:13:42;;;;;;;1.60;1.40;;;;;;;13.62;62.75;97698.50;1702796;75;676220;-74
2023/04/17 09:16:15;;;;;;;2.95;1.65;;;;;;;13.53;62.36;97706.94;1711339;75;672552;-73
2023/04/17 09:18:45;;;;;;;3.20;1.90;;;;;;;13.38;60.90;97701.66;1699905;75;925648;-70
2023/04/17 09:21:19;;;;;;;3.20;2.20;;;;;;;13.59;60.72;97704.25;1711510;75;675427;-70
2023/04/17 09:23:53;;;;;;;3.75;2.25;;;;;;;13.39;59.68;97702.41;1703074;75;764878;-70
2023/04/17 09:26:26;;;;;;;3.60;2.20;;;;;;;13.45;59.28;97705.19;1711409;75;682133;-70
2023/04/17 09:29:16;;;;;;;4.30;2.40;;;;;;;13.50;59.52;97693.44;1686660;75;1974785;-70
2023/04/17 09:31:47;;;;;;;3.65;2.90;;;;;;;13.72;60.97;97701.78;1701054;67;949904;-70
2023/04/17 09:34:19;;;;;;;4.95;3.00;;;;;;;13.53;59.05;97697.97;1711234;75;702927;-74
2023/04/17 09:36:50;;;;;;;3.65;2.55;;;;;;;13.84;59.57;97700.53;1702834;75;681871;-70
2023/04/17 09:39:23;;;;;;;4.00;2.70;;;;;;;13.87;59.71;97693.28;1710758;75;685862;-70
2023/04/17 09:42:02;;;;;;;3.35;2.80;;;;;;;13.90;59.71;97697.06;1703173;75;684389;-70
2023/04/17 09:44:36;;;;;;;3.60;3.10;;;;;;;13.75;58.62;97689.75;1703803;75;688102;-71
2023/04/17 09:47:08;;;;;;;5.80;3.30;;;;;;;13.80;58.12;97685.53;1712038;75;674701;-71
2023/04/17 09:49:47;;;;;;;3.50;2.90;;;;;;;14.14;58.82;97688.34;1702396;75;684325;-74
2023/04/17 09:52:18;;;;;;;4.80;2.90;;;;;;;14.57;57.90;97686.13;1711338;75;680705;-73
2023/04/17 09:54:52;;;;;;;3.90;3.40;;;;;;;14.38;58.84;97685.09;1703122;75;673772;-71
2023/04/17 09:57:23;;;;;;;4.75;3.50;;;;;;;14.44;56.80;97683.09;1696221;75;1877015;-73
2023/04/17 10:00:00;;;;;;;4.10;3.25;;;;;;;14.87;59.10;97671.81;1702918;75;676864;-76
2023/04/17 10:02:30;;;;;;;4.50;3.50;;;;;;;14.86;59.07;97671.06;1709029;75;884625;-70
2023/04/17 10:05:01;;;;;;;4.30;3.55;;;;;;;14.56;58.04;97672.84;1702545;75;728400;-74
2023/04/17 10:07:32;;;;;;;3.60;3.20;;;;;;;14.14;56.50;97669.84;1697666;75;1840235;-70
2023/04/17 10:10:08;;;;;;;4.10;3.65;;;;;;;14.14;57.73;97669.84;1701740;75;759828;-71
2023/04/17 10:12:39;;;;;;;4.65;3.60;;;;;;;14.12;57.42;97660.53;1687926;75;2000245;-71
2023/04/17 10:15:15;;;;;;;8.10;4.20;;;;;;;14.22;57.90;97667.34;1708419;75;966998;-71
2023/04/17 10:17:46;;;;;;;3.70;3.30;;;;;;;14.73;57.60;97665.31;1701137;75;867791;-72
2023/04/17 10:20:38;;;;;;;4.70;3.95;;;;;;;14.51;56.46;97657.06;1711302;75;679509;-70
2023/04/17 10:23:31;;;;;;;4.10;3.60;;;;;;;14.90;57.31;97649.50;1700549;75;878781;-71
2023/04/17 10:26:43;;;;;;;4.60;3.60;;;;;;;14.45;57.08;97663.31;1703693;75;675983;-71
2023/04/17 10:29:13;;;;;;;5.00;3.80;;;;;;;14.37;56.61;97656.06;1702826;75;737509;-70
2023/04/17 10:32:29;;;;;;;4.55;4.00;;;;;;;14.21;57.67;97650.03;1661732;75;4905716;-70
2023/04/17 10:35:02;;;;;;;5.95;4.45;;;;;;;14.10;56.91;97650.06;1702497;75;749973;-70
2023/04/17 10:38:10;;;;;;;4.30;3.60;;;;;;;14.53;56.88;97655.31;1711609;75;679094;-71
2023/04/17 10:40:42;;;;;;;5.50;4.05;;;;;;;14.30;56.48;97651.06;1702320;75;742942;-71
2023/04/17 10:43:16;;;;;;;6.00;3.80;;;;;;;14.25;57.36;97649.81;1683718;75;2986844;-73
2023/04/17 10:46:02;;;;;;;5.00;3.80;;;;;;;14.31;56.00;97647.03;1702003;75;741989;-75
2023/04/17 10:48:39;;;;;;;6.55;4.95;;;;;;;14.47;57.02;97638.75;1701521;75;822662;-72
2023/04/17 10:51:43;;;;;;;5.75;3.70;;;;;;;14.25;56.13;97636.78;1710732;75;720757;-69
2023/04/17 10:54:15;;;;;;;5.00;3.70;;;;;;;14.28;56.11;97632.28;1699396;75;902057;-73
2023/04/17 10:56:48;;;;;;;5.00;4.00;;;;;;;14.27;56.54;97639.03;1712162;75;676152;-70
2023/04/17 10:59:19;;;;;;;4.45;3.50;;;;;;;14.35;57.10;97628.28;1702199;75;756163;-74
2023/04/17 11:02:03;;;;;;;5.70;3.80;;;;;;;14.52;56.07;97628.25;1711720;75;671818;-74
2023/04/17 11:04:36;;;;;;;7.50;3.80;;;;;;;14.66;55.92;97632.75;1700587;75;884629;-71
2023/04/17 11:07:06;;;;;;;4.25;3.70;;;;;;;14.53;55.19;97629.75;1712111;75;676088;-71
2023/04/17 11:09:37;;;;;;;4.90;3.50;;;;;;;14.77;55.05;97629.22;1701853;75;799516;-70
2023/04/17 11:12:08;;;;;;;6.30;3.50;;;;;;;14.84;56.12;97629.47;1712217;75;675211;-72
2023/04/17 11:14:42;;;;;;;4.30;3.70;;;;;;;14.66;55.12;97621.75;1675584;75;2990810;-70
2023/04/17 11:17:13;;;;;;;4.00;3.50;;;;;;;14.80;55.48;97626.22;1709706;75;876338;-75
2023/04/17 11:19:46;;;;;;;4.45;3.40;;;;;;;14.80;53.80;97625.47;1701562;75;772280;-72
2023/04/17 11:22:20;;;;;;;4.50;3.40;;;;;;;14.82;53.08;97615.44;1711829;75;672588;-70
2023/04/17 11:24:53;;;;;;;5.00;3.70;;;;;;;14.95;54.64;97625.94;1703430;75;757726;-75
2023/04/17 11:27:24;;;;;;;3.95;3.25;;;;;;;14.76;53.60;97617.47;1711734;75;691474;-73
2023/04/17 11:29:54;;;;;;;4.05;3.30;;;;;;;14.96;53.64;97618.41;1630622;75;6711670;-73
2023/04/17 11:32:25;;;;;;;3.90;3.30;;;;;;;14.79;52.89;97621.97;1698704;75;1835198;-71
2023/04/17 11:34:59;;;;;;;3.80;2.85;;;;;;;14.80;53.03;97617.22;1704169;75;745076;-71
2023/04/17 11:37:30;;;;;;;4.20;3.00;;;;;;;14.86;53.24;97612.41;1712790;75;674386;-70
2023/04/17 11:40:09;;;;;;;4.00;3.50;;;;;;;14.79;52.81;97616.47;1703104;75;743218;-75
2023/04/17 11:42:46;;;;;;;5.40;3.50;;;;;;;15.03;52.82;97617.88;1704475;75;678684;-71
2023/04/17 11:45:16;;;;;;;;;;;;;;;15.03;52.77;97604.88;1712032;75;695466;-71
2023/04/17 11:47:48;;;;;;;3.50;2.90;;;;;;;15.37;52.72;97610.22;1703100;75;680100;-70